< Cyclone 202002 2020 Season Cyclone 202005 >
Cyclone 202003 (Claudia)
General InformationTrack Information on Google MapsDetailed Wind InformationList of All Images || ResourceGoogle EarthGE AnimationAtom FeedGeoJSON
Detalied Best Track (Time Zone = UTC)
Year Month Day Hour Lat. Long. Pressure (hPa) Wind (kt) Class Image Chart
2020 1 5 06 -9.3 135.5 1006 20 2 Image --
2020 1 5 12 -9.4 135.8 1006 20 2 Image --
2020 1 5 18 -9.4 136.0 1006 20 2 Image --
2020 1 6 00 -9.5 136.3 1006 25 2 Image --
2020 1 6 06 -9.5 136.6 1006 25 2 Image --
2020 1 6 12 -9.6 136.6 1006 20 2 Image --
2020 1 6 18 -9.9 136.7 1004 25 2 Image --
2020 1 7 00 -10.7 137.7 1004 25 2 Image --
2020 1 7 06 -11.0 137.4 1004 25 2 Image --
2020 1 7 12 -11.1 137.0 1004 20 2 Image --
2020 1 7 18 -11.1 136.6 1002 25 2 Image --
2020 1 8 00 -11.0 136.1 1000 25 2 Image --
2020 1 8 06 -11.2 135.4 999 30 2 Image --
2020 1 8 12 -11.5 135.0 998 30 2 Image --
2020 1 8 18 -11.9 134.5 998 30 2 Image --
2020 1 9 00 -12.0 134.1 998 30 2 Image --
2020 1 9 06 -12.3 133.7 998 25 2 Image --
2020 1 9 12 -12.8 133.2 999 25 2 Image --
2020 1 9 18 -12.9 132.7 1002 20 2 Image --
2020 1 10 00 -13.0 131.7 1004 20 2 Image --
2020 1 10 06 -12.5 130.6 1004 20 2 Image --
2020 1 10 12 -12.5 130.1 999 25 2 Image --
2020 1 10 18 -12.7 129.5 997 30 2 Image --
2020 1 11 00 -12.7 128.5 996 30 2 Image --
2020 1 11 06 -12.8 127.3 996 30 2 Image --
2020 1 11 12 -13.0 126.3 996 35 3 Image --
2020 1 11 15 -13.2 125.8 994 40 3 Image --
2020 1 11 18 -13.4 125.2 993 45 3 Image --
2020 1 12 00 -13.8 123.5 983 55 4 Image --
2020 1 12 06 -14.0 122.2 982 55 4 Image --
2020 1 12 12 -14.7 120.8 979 60 4 Image --
2020 1 12 18 -15.6 118.7 973 70 5 Image --
2020 1 13 00 -16.2 117.2 967 75 5 Image --
2020 1 13 06 -16.8 115.6 963 80 5 Image --
2020 1 13 12 -17.1 114.0 965 80 5 Image --
2020 1 13 18 -17.4 112.4 969 75 5 Image --
2020 1 14 00 -17.5 111.2 974 70 5 Image --
2020 1 14 06 -17.8 110.1 979 65 5 Image --
2020 1 14 12 -18.2 109.2 989 50 4 Image --
2020 1 14 18 -18.8 108.2 992 45 3 Image --
2020 1 15 00 -19.3 107.4 994 45 3 Image --
2020 1 15 06 -20.0 106.5 996 40 3 Image --
2020 1 15 12 -20.6 105.8 1003 30 2 Image --
2020 1 15 18 -21.1 104.5 1006 30 2 Image --
2020 1 16 00 -21.9 104.0 1008 25 2 Image --
2020 1 16 06 -22.7 103.7 1008 20 2 Image --
2020 1 16 12 -23.2 103.4 1008 20 2 Image --
2020 1 16 18 -23.7 103.1 1008 20 2 Image --
2020 1 17 00 -24.2 103.0 1008 20 2 Image --
2020 1 17 06 -24.2 102.7 1008 20 2 Image --
2020 1 17 12 -24.0 102.2 1008 20 2 Image --
2020 1 17 18 -23.5 101.2 1008 15 2 Image --
2020 1 18 00 -23.1 100.2 1008 15 2 Image --
2020 1 18 06 -22.8 99.4 1008 15 2 Image --
2020 1 18 12 -22.5 98.5 1008 15 2 Image --
2020 1 18 18 -22.2 97.7 1008 15 2 Image --
2020 1 19 00 -21.9 96.8 1008 15 2 Image --
< Cyclone 202002 2020 Season Cyclone 202005 >

Help